Kezdőlap
METAR-TAF:

METAR-TAF

Repülőterek :

Winner, Dél-Dakota, Amerikai Egyesült Államok

földrajzi szélesség: 43-23-26N, földrajzi hosszúság: 099-50-33W, magasság: 619 m

Jelenlegi meteorológiai megfigyelések

A jelentés 1 órával és 16 perccel ezelõtt készült, 03:53 UTC
Délkeleti szél 6 kt
Hőmérséklet 23°C
Páratartalom 69%
Légköri nyomás 1008 hPa
Derült ég

METAR: KICR 130353Z AUTO 13006KT CLR 23/17 A2977 RMK AO2 SLP063 T02280172 $

Idő: 00:09 (05:09 UTC)


TAF: hiányzik

Meteorológiai megfigyelések és előrejelzések több, mint 4000 repülőtéren (METAR és TAF jelentéseket).

A térképen piros és sárga pontok jelzik az elérhető meteorológiai állomásokat.

Mozgassa az egeret a pont fölött, hogy megjelenjen az állomás neve.

Azután kattintson az időjárási megfigyelések és előrejelzések megtekintéséhez.

A térkép megváltoztatása: kattintson a fekete keresztel jelölt zöld gombra ráközelítéshez, a vonallal jelölt zöld gombra távolításhoz, vagy a zöld nyilakra a szomszédos térképek eléréséhez.


METAR-TAF: